sim
Sign-in with your pilot id or email,
or register
Callsign
Passwort

Schedule Details

Flight Number: OEO4017
Departure: Munster Osnabruck International -?Airport (EDDG) at 11:05
Arrival: Munich Airport (EDDM) at 12:25

Weather Information
Getting current METAR information for EDDG 241120Z 20010KT 170V240 9999 FEW038 17/08 Q1003 NOSIG
Getting current METAR information for EDDM 241120Z 22005KT 130V250 9999 FEW033 20/13 Q1010 NOSIG

Schedule Frequency

Route Map